Terminal Aerodrome Forecast
Issued by NWS Pueblo, CO

Home | Current Version | Previous Version | Text Only | Print | Product List | Glossary On
Versions: 1 2 3 4 5 6 7 8 9 10 11 12 13 14 15 16 17 18 19 20 21 22 23 24 25 26 27 28 29 30 31 32 33 34 35 36 37 38 39 40 41 42 43 44 45 46 47 48 49
000
FTUS45 KPUB 311405 AAB
TAFCOS
TAF AMD
KCOS 311405Z 3114/0112 15007KT 4SM BR SCT005 OVC010
      TEMPO 3114/3116 -RA BKN005
     FM311600 16006KT 5SM BR SCT012 BKN025
     FM312000 15009KT P6SM VCTS SCT035CB BKN060
     FM010200 18008KT P6SM SCT060 BKN120
     FM010600 08006KT P6SM SCT070 BKN140=

USA.gov is the U.S. government's official web portal to all federal, state and local government web resources and services.